sensor_id;sensor_type;location;lat;lon;timestamp;P1;durP1;ratioP1;P2;durP2;ratioP2
13872;SDS011;7006;51.494;11.964;2023-08-12T00:02:14;11.60;;;5.87;;
13872;SDS011;7006;51.494;11.964;2023-08-12T00:04:42;7.50;;;5.80;;
13872;SDS011;7006;51.494;11.964;2023-08-12T00:07:12;9.60;;;5.20;;
13872;SDS011;7006;51.494;11.964;2023-08-12T00:09:41;7.00;;;5.40;;
13872;SDS011;7006;51.494;11.964;2023-08-12T00:12:09;10.50;;;5.30;;
13872;SDS011;7006;51.494;11.964;2023-08-12T00:14:37;9.33;;;5.10;;
13872;SDS011;7006;51.494;11.964;2023-08-12T00:17:05;9.43;;;5.53;;
13872;SDS011;7006;51.494;11.964;2023-08-12T00:19:33;8.13;;;5.13;;
13872;SDS011;7006;51.494;11.964;2023-08-12T00:22:01;46.90;;;8.93;;
13872;SDS011;7006;51.494;11.964;2023-08-12T00:24:32;9.40;;;4.87;;
13872;SDS011;7006;51.494;11.964;2023-08-12T00:27:00;8.00;;;5.50;;
13872;SDS011;7006;51.494;11.964;2023-08-12T00:29:28;10.70;;;5.97;;
13872;SDS011;7006;51.494;11.964;2023-08-12T00:31:56;8.23;;;4.33;;
13872;SDS011;7006;51.494;11.964;2023-08-12T00:34:24;10.17;;;5.63;;
13872;SDS011;7006;51.494;11.964;2023-08-12T00:36:52;10.03;;;5.00;;
13872;SDS011;7006;51.494;11.964;2023-08-12T00:39:20;7.70;;;5.33;;
13872;SDS011;7006;51.494;11.964;2023-08-12T00:41:51;8.60;;;5.70;;
13872;SDS011;7006;51.494;11.964;2023-08-12T00:44:19;8.23;;;5.30;;
13872;SDS011;7006;51.494;11.964;2023-08-12T00:46:47;8.23;;;5.50;;
13872;SDS011;7006;51.494;11.964;2023-08-12T00:49:16;6.97;;;5.43;;
13872;SDS011;7006;51.494;11.964;2023-08-12T00:51:44;8.23;;;5.40;;
13872;SDS011;7006;51.494;11.964;2023-08-12T00:54:13;9.30;;;5.57;;
13872;SDS011;7006;51.494;11.964;2023-08-12T00:56:42;6.80;;;5.57;;
13872;SDS011;7006;51.494;11.964;2023-08-12T00:59:13;7.37;;;5.17;;
13872;SDS011;7006;51.494;11.964;2023-08-12T01:01:41;9.40;;;5.57;;
13872;SDS011;7006;51.494;11.964;2023-08-12T01:04:10;6.93;;;5.10;;
13872;SDS011;7006;51.494;11.964;2023-08-12T01:06:38;9.47;;;5.77;;
13872;SDS011;7006;51.494;11.964;2023-08-12T01:09:06;11.23;;;5.70;;
13872;SDS011;7006;51.494;11.964;2023-08-12T01:11:36;9.77;;;5.43;;
13872;SDS011;7006;51.494;11.964;2023-08-12T01:14:07;8.03;;;5.27;;
13872;SDS011;7006;51.494;11.964;2023-08-12T01:16:39;8.57;;;5.60;;
13872;SDS011;7006;51.494;11.964;2023-08-12T01:19:10;8.30;;;5.60;;
13872;SDS011;7006;51.494;11.964;2023-08-12T01:21:40;8.83;;;5.80;;
13872;SDS011;7006;51.494;11.964;2023-08-12T01:24:11;6.00;;;5.40;;
13872;SDS011;7006;51.494;11.964;2023-08-12T01:26:39;13.93;;;6.27;;
13872;SDS011;7006;51.494;11.964;2023-08-12T01:29:07;8.70;;;6.10;;
13872;SDS011;7006;51.494;11.964;2023-08-12T01:31:37;10.03;;;6.50;;
13872;SDS011;7006;51.494;11.964;2023-08-12T01:34:07;9.23;;;5.63;;
13872;SDS011;7006;51.494;11.964;2023-08-12T01:36:38;10.30;;;6.20;;
13872;SDS011;7006;51.494;11.964;2023-08-12T01:39:07;6.43;;;5.73;;
13872;SDS011;7006;51.494;11.964;2023-08-12T01:41:40;11.77;;;5.87;;
13872;SDS011;7006;51.494;11.964;2023-08-12T01:44:08;11.20;;;6.33;;
13872;SDS011;7006;51.494;11.964;2023-08-12T01:46:36;11.27;;;6.23;;
13872;SDS011;7006;51.494;11.964;2023-08-12T01:49:04;7.87;;;6.00;;
13872;SDS011;7006;51.494;11.964;2023-08-12T01:51:32;14.37;;;5.90;;
13872;SDS011;7006;51.494;11.964;2023-08-12T01:54:00;12.60;;;6.13;;
13872;SDS011;7006;51.494;11.964;2023-08-12T01:56:28;10.20;;;5.90;;
13872;SDS011;7006;51.494;11.964;2023-08-12T01:58:59;10.97;;;6.17;;
13872;SDS011;7006;51.494;11.964;2023-08-12T02:01:27;13.50;;;5.90;;
13872;SDS011;7006;51.494;11.964;2023-08-12T02:03:55;10.20;;;6.07;;
13872;SDS011;7006;51.494;11.964;2023-08-12T02:06:23;9.67;;;6.30;;
13872;SDS011;7006;51.494;11.964;2023-08-12T02:08:51;10.63;;;5.80;;
13872;SDS011;7006;51.494;11.964;2023-08-12T02:11:19;13.30;;;6.90;;
13872;SDS011;7006;51.494;11.964;2023-08-12T02:13:47;9.50;;;5.60;;
13872;SDS011;7006;51.494;11.964;2023-08-12T02:16:18;8.73;;;6.37;;
13872;SDS011;7006;51.494;11.964;2023-08-12T02:18:46;10.10;;;6.00;;
13872;SDS011;7006;51.494;11.964;2023-08-12T02:21:14;8.40;;;6.43;;
13872;SDS011;7006;51.494;11.964;2023-08-12T02:23:42;7.73;;;6.50;;
13872;SDS011;7006;51.494;11.964;2023-08-12T02:26:11;15.67;;;6.83;;
13872;SDS011;7006;51.494;11.964;2023-08-12T02:28:39;7.30;;;6.17;;
13872;SDS011;7006;51.494;11.964;2023-08-12T02:31:07;8.30;;;6.40;;
13872;SDS011;7006;51.494;11.964;2023-08-12T02:33:38;7.77;;;6.03;;
13872;SDS011;7006;51.494;11.964;2023-08-12T02:36:06;9.50;;;6.23;;
13872;SDS011;7006;51.494;11.964;2023-08-12T02:38:34;15.90;;;6.30;;
13872;SDS011;7006;51.494;11.964;2023-08-12T02:41:02;17.87;;;6.70;;
13872;SDS011;7006;51.494;11.964;2023-08-12T02:43:30;7.33;;;6.13;;
13872;SDS011;7006;51.494;11.964;2023-08-12T02:45:58;12.23;;;6.77;;
13872;SDS011;7006;51.494;11.964;2023-08-12T02:48:26;15.30;;;6.90;;
13872;SDS011;7006;51.494;11.964;2023-08-12T02:50:57;16.70;;;6.90;;
13872;SDS011;7006;51.494;11.964;2023-08-12T02:53:25;8.57;;;6.83;;
13872;SDS011;7006;51.494;11.964;2023-08-12T02:55:53;10.93;;;6.80;;
13872;SDS011;7006;51.494;11.964;2023-08-12T02:58:21;8.30;;;7.10;;
13872;SDS011;7006;51.494;11.964;2023-08-12T03:00:49;11.97;;;7.83;;
13872;SDS011;7006;51.494;11.964;2023-08-12T03:03:17;17.17;;;13.67;;
13872;SDS011;7006;51.494;11.964;2023-08-12T03:05:45;26.13;;;20.77;;
13872;SDS011;7006;51.494;11.964;2023-08-12T03:08:16;22.83;;;20.43;;
13872;SDS011;7006;51.494;11.964;2023-08-12T03:10:44;21.47;;;19.27;;
13872;SDS011;7006;51.494;11.964;2023-08-12T03:13:12;18.43;;;16.40;;
13872;SDS011;7006;51.494;11.964;2023-08-12T03:15:41;18.87;;;17.03;;
13872;SDS011;7006;51.494;11.964;2023-08-12T03:18:09;26.13;;;20.50;;
13872;SDS011;7006;51.494;11.964;2023-08-12T03:20:34;24.07;;;21.03;;
13872;SDS011;7006;51.494;11.964;2023-08-12T03:23:02;21.77;;;18.53;;
13872;SDS011;7006;51.494;11.964;2023-08-12T03:25:33;18.80;;;14.30;;
13872;SDS011;7006;51.494;11.964;2023-08-12T03:28:01;14.90;;;13.50;;
13872;SDS011;7006;51.494;11.964;2023-08-12T03:30:29;18.40;;;13.40;;
13872;SDS011;7006;51.494;11.964;2023-08-12T03:32:57;14.93;;;12.40;;
13872;SDS011;7006;51.494;11.964;2023-08-12T03:35:25;15.03;;;12.50;;
13872;SDS011;7006;51.494;11.964;2023-08-12T03:37:54;13.30;;;11.40;;
13872;SDS011;7006;51.494;11.964;2023-08-12T03:40:22;14.20;;;10.50;;
13872;SDS011;7006;51.494;11.964;2023-08-12T03:42:52;13.97;;;9.27;;
13872;SDS011;7006;51.494;11.964;2023-08-12T03:45:21;10.87;;;9.07;;
13872;SDS011;7006;51.494;11.964;2023-08-12T03:47:49;11.03;;;9.33;;
13872;SDS011;7006;51.494;11.964;2023-08-12T03:50:17;15.00;;;9.53;;
13872;SDS011;7006;51.494;11.964;2023-08-12T03:52:45;12.00;;;9.67;;
13872;SDS011;7006;51.494;11.964;2023-08-12T03:55:13;11.23;;;8.40;;
13872;SDS011;7006;51.494;11.964;2023-08-12T03:57:41;11.37;;;8.10;;
13872;SDS011;7006;51.494;11.964;2023-08-12T04:00:12;10.17;;;7.40;;
13872;SDS011;7006;51.494;11.964;2023-08-12T04:02:41;10.70;;;8.50;;
13872;SDS011;7006;51.494;11.964;2023-08-12T04:05:10;14.80;;;9.00;;
13872;SDS011;7006;51.494;11.964;2023-08-12T04:07:38;12.33;;;8.10;;
13872;SDS011;7006;51.494;11.964;2023-08-12T04:10:06;13.57;;;8.77;;
13872;SDS011;7006;51.494;11.964;2023-08-12T04:12:36;13.93;;;9.03;;
13872;SDS011;7006;51.494;11.964;2023-08-12T04:15:05;13.30;;;9.83;;
13872;SDS011;7006;51.494;11.964;2023-08-12T04:17:36;10.13;;;9.10;;
13872;SDS011;7006;51.494;11.964;2023-08-12T04:20:05;17.87;;;10.00;;
13872;SDS011;7006;51.494;11.964;2023-08-12T04:22:34;12.00;;;9.60;;
13872;SDS011;7006;51.494;11.964;2023-08-12T04:25:02;12.70;;;9.93;;
13872;SDS011;7006;51.494;11.964;2023-08-12T04:27:30;12.47;;;9.37;;
13872;SDS011;7006;51.494;11.964;2023-08-12T04:29:58;13.37;;;10.23;;
13872;SDS011;7006;51.494;11.964;2023-08-12T04:32:26;12.43;;;9.93;;
13872;SDS011;7006;51.494;11.964;2023-08-12T04:34:57;12.50;;;10.00;;
13872;SDS011;7006;51.494;11.964;2023-08-12T04:37:25;10.10;;;8.70;;
13872;SDS011;7006;51.494;11.964;2023-08-12T04:39:53;9.80;;;8.37;;
13872;SDS011;7006;51.494;11.964;2023-08-12T04:42:22;10.13;;;8.80;;
13872;SDS011;7006;51.494;11.964;2023-08-12T04:44:50;13.87;;;9.00;;
13872;SDS011;7006;51.494;11.964;2023-08-12T04:47:18;12.20;;;9.33;;
13872;SDS011;7006;51.494;11.964;2023-08-12T04:49:46;11.00;;;9.30;;
13872;SDS011;7006;51.494;11.964;2023-08-12T04:52:16;9.97;;;8.40;;
13872;SDS011;7006;51.494;11.964;2023-08-12T04:54:45;9.57;;;8.60;;
13872;SDS011;7006;51.494;11.964;2023-08-12T04:57:13;9.50;;;8.50;;
13872;SDS011;7006;51.494;11.964;2023-08-12T04:59:42;9.03;;;8.10;;
13872;SDS011;7006;51.494;11.964;2023-08-12T05:02:10;11.37;;;8.60;;
13872;SDS011;7006;51.494;11.964;2023-08-12T05:04:38;9.30;;;8.40;;
13872;SDS011;7006;51.494;11.964;2023-08-12T05:07:06;11.20;;;8.70;;
13872;SDS011;7006;51.494;11.964;2023-08-12T05:09:37;12.70;;;8.60;;
13872;SDS011;7006;51.494;11.964;2023-08-12T05:12:06;13.60;;;8.33;;
13872;SDS011;7006;51.494;11.964;2023-08-12T05:14:34;10.37;;;7.73;;
13872;SDS011;7006;51.494;11.964;2023-08-12T05:17:02;10.83;;;8.40;;
13872;SDS011;7006;51.494;11.964;2023-08-12T05:19:30;10.77;;;7.60;;
13872;SDS011;7006;51.494;11.964;2023-08-12T05:21:58;19.30;;;7.97;;
13872;SDS011;7006;51.494;11.964;2023-08-12T05:24:27;9.10;;;8.10;;
13872;SDS011;7006;51.494;11.964;2023-08-12T05:26:57;13.60;;;8.07;;
13872;SDS011;7006;51.494;11.964;2023-08-12T05:29:26;9.23;;;8.00;;
13872;SDS011;7006;51.494;11.964;2023-08-12T05:31:54;11.68;;;8.50;;
13872;SDS011;7006;51.494;11.964;2023-08-12T05:34:22;12.00;;;8.70;;
13872;SDS011;7006;51.494;11.964;2023-08-12T05:36:50;10.57;;;7.97;;
13872;SDS011;7006;51.494;11.964;2023-08-12T05:39:18;8.60;;;7.20;;
13872;SDS011;7006;51.494;11.964;2023-08-12T05:41:47;11.83;;;8.50;;
13872;SDS011;7006;51.494;11.964;2023-08-12T05:44:19;8.30;;;7.30;;
13872;SDS011;7006;51.494;11.964;2023-08-12T05:46:47;9.27;;;7.93;;
13872;SDS011;7006;51.494;11.964;2023-08-12T05:49:15;12.80;;;8.63;;
13872;SDS011;7006;51.494;11.964;2023-08-12T05:51:43;8.40;;;7.23;;
13872;SDS011;7006;51.494;11.964;2023-08-12T05:54:12;9.03;;;8.13;;
13872;SDS011;7006;51.494;11.964;2023-08-12T05:56:40;7.70;;;7.00;;
13872;SDS011;7006;51.494;11.964;2023-08-12T05:59:08;8.93;;;7.00;;
13872;SDS011;7006;51.494;11.964;2023-08-12T06:01:38;11.13;;;7.40;;
13872;SDS011;7006;51.494;11.964;2023-08-12T06:04:06;10.70;;;7.60;;
13872;SDS011;7006;51.494;11.964;2023-08-12T06:06:35;8.33;;;7.00;;
13872;SDS011;7006;51.494;11.964;2023-08-12T06:09:03;8.97;;;7.50;;
13872;SDS011;7006;51.494;11.964;2023-08-12T06:11:31;8.30;;;7.50;;
13872;SDS011;7006;51.494;11.964;2023-08-12T06:13:59;8.57;;;6.30;;
13872;SDS011;7006;51.494;11.964;2023-08-12T06:16:27;9.13;;;7.10;;
13872;SDS011;7006;51.494;11.964;2023-08-12T06:18:58;8.70;;;7.80;;
13872;SDS011;7006;51.494;11.964;2023-08-12T06:21:26;10.13;;;7.97;;
13872;SDS011;7006;51.494;11.964;2023-08-12T06:23:54;8.13;;;6.80;;
13872;SDS011;7006;51.494;11.964;2023-08-12T06:26:23;10.87;;;7.70;;
13872;SDS011;7006;51.494;11.964;2023-08-12T06:28:51;8.27;;;6.90;;
13872;SDS011;7006;51.494;11.964;2023-08-12T06:31:19;7.67;;;6.90;;
13872;SDS011;7006;51.494;11.964;2023-08-12T06:33:47;10.37;;;7.23;;
13872;SDS011;7006;51.494;11.964;2023-08-12T06:36:18;9.20;;;7.33;;
13872;SDS011;7006;51.494;11.964;2023-08-12T06:38:46;8.27;;;7.37;;
13872;SDS011;7006;51.494;11.964;2023-08-12T06:41:14;9.20;;;7.37;;
13872;SDS011;7006;51.494;11.964;2023-08-12T06:43:42;8.27;;;7.37;;
13872;SDS011;7006;51.494;11.964;2023-08-12T06:46:10;7.03;;;6.33;;
13872;SDS011;7006;51.494;11.964;2023-08-12T06:48:38;10.50;;;6.90;;
13872;SDS011;7006;51.494;11.964;2023-08-12T06:51:06;8.00;;;7.03;;
13872;SDS011;7006;51.494;11.964;2023-08-12T06:53:38;11.20;;;6.70;;
13872;SDS011;7006;51.494;11.964;2023-08-12T06:56:06;8.70;;;7.40;;
13872;SDS011;7006;51.494;11.964;2023-08-12T06:58:34;9.30;;;7.00;;
13872;SDS011;7006;51.494;11.964;2023-08-12T07:01:02;8.83;;;7.33;;
13872;SDS011;7006;51.494;11.964;2023-08-12T07:03:30;7.43;;;6.40;;
13872;SDS011;7006;51.494;11.964;2023-08-12T07:05:58;8.73;;;6.80;;
13872;SDS011;7006;51.494;11.964;2023-08-12T07:08:26;7.47;;;6.70;;
13872;SDS011;7006;51.494;11.964;2023-08-12T07:11:00;7.47;;;6.77;;
13872;SDS011;7006;51.494;11.964;2023-08-12T07:13:29;10.00;;;7.10;;
13872;SDS011;7006;51.494;11.964;2023-08-12T07:15:58;7.13;;;6.47;;
13872;SDS011;7006;51.494;11.964;2023-08-12T07:18:26;7.97;;;6.37;;
13872;SDS011;7006;51.494;11.964;2023-08-12T07:20:54;7.80;;;6.40;;
13872;SDS011;7006;51.494;11.964;2023-08-12T07:23:23;8.00;;;7.20;;
13872;SDS011;7006;51.494;11.964;2023-08-12T07:25:51;7.50;;;6.80;;
13872;SDS011;7006;51.494;11.964;2023-08-12T07:28:22;8.00;;;7.20;;
13872;SDS011;7006;51.494;11.964;2023-08-12T07:30:50;7.57;;;6.87;;
13872;SDS011;7006;51.494;11.964;2023-08-12T07:33:19;10.37;;;6.73;;
13872;SDS011;7006;51.494;11.964;2023-08-12T07:35:47;7.97;;;7.03;;
13872;SDS011;7006;51.494;11.964;2023-08-12T07:38:15;9.57;;;7.20;;
13872;SDS011;7006;51.494;11.964;2023-08-12T07:40:43;8.43;;;7.50;;
13872;SDS011;7006;51.494;11.964;2023-08-12T07:43:11;9.67;;;8.13;;
13872;SDS011;7006;51.494;11.964;2023-08-12T07:45:42;10.37;;;7.97;;
13872;SDS011;7006;51.494;11.964;2023-08-12T07:48:10;9.13;;;8.23;;
13872;SDS011;7006;51.494;11.964;2023-08-12T07:50:38;9.80;;;8.40;;
13872;SDS011;7006;51.494;11.964;2023-08-12T07:53:06;10.40;;;7.87;;
13872;SDS011;7006;51.494;11.964;2023-08-12T07:55:35;9.67;;;8.67;;
13872;SDS011;7006;51.494;11.964;2023-08-12T07:58:03;13.63;;;9.13;;
13872;SDS011;7006;51.494;11.964;2023-08-12T08:00:32;9.57;;;8.57;;
13872;SDS011;7006;51.494;11.964;2023-08-12T08:03:03;9.77;;;8.77;;
13872;SDS011;7006;51.494;11.964;2023-08-12T08:05:31;9.80;;;8.80;;
13872;SDS011;7006;51.494;11.964;2023-08-12T08:07:59;10.03;;;8.20;;
13872;SDS011;7006;51.494;11.964;2023-08-12T08:10:28;9.60;;;8.70;;
13872;SDS011;7006;51.494;11.964;2023-08-12T08:12:56;9.67;;;8.77;;
13872;SDS011;7006;51.494;11.964;2023-08-12T08:15:24;9.97;;;8.73;;
13872;SDS011;7006;51.494;11.964;2023-08-12T08:17:52;10.90;;;9.43;;
13872;SDS011;7006;51.494;11.964;2023-08-12T08:20:23;10.67;;;9.63;;
13872;SDS011;7006;51.494;11.964;2023-08-12T08:22:51;10.67;;;9.27;;
13872;SDS011;7006;51.494;11.964;2023-08-12T08:25:20;12.07;;;9.63;;
13872;SDS011;7006;51.494;11.964;2023-08-12T08:27:48;10.40;;;9.40;;
13872;SDS011;7006;51.494;11.964;2023-08-12T08:30:16;10.60;;;9.00;;
13872;SDS011;7006;51.494;11.964;2023-08-12T08:32:46;10.37;;;9.37;;
13872;SDS011;7006;51.494;11.964;2023-08-12T08:35:14;10.17;;;9.20;;
13872;SDS011;7006;51.494;11.964;2023-08-12T08:37:45;9.70;;;8.80;;
13872;SDS011;7006;51.494;11.964;2023-08-12T08:40:13;14.40;;;10.03;;
13872;SDS011;7006;51.494;11.964;2023-08-12T08:42:41;10.40;;;9.40;;
13872;SDS011;7006;51.494;11.964;2023-08-12T08:45:12;15.23;;;8.67;;
13872;SDS011;7006;51.494;11.964;2023-08-12T08:47:41;11.67;;;9.60;;
13872;SDS011;7006;51.494;11.964;2023-08-12T08:50:10;10.67;;;9.60;;
13872;SDS011;7006;51.494;11.964;2023-08-12T08:52:39;9.70;;;8.73;;
13872;SDS011;7006;51.494;11.964;2023-08-12T08:55:11;9.10;;;8.30;;
13872;SDS011;7006;51.494;11.964;2023-08-12T08:57:39;11.00;;;9.30;;
13872;SDS011;7006;51.494;11.964;2023-08-12T09:00:08;10.73;;;9.60;;
13872;SDS011;7006;51.494;11.964;2023-08-12T09:02:37;10.57;;;9.47;;
13872;SDS011;7006;51.494;11.964;2023-08-12T09:05:06;11.40;;;9.50;;
13872;SDS011;7006;51.494;11.964;2023-08-12T09:07:34;9.87;;;8.63;;
13872;SDS011;7006;51.494;11.964;2023-08-12T09:10:03;10.07;;;9.00;;
13872;SDS011;7006;51.494;11.964;2023-08-12T09:12:31;9.63;;;8.67;;
13872;SDS011;7006;51.494;11.964;2023-08-12T09:15:01;10.27;;;9.27;;
13872;SDS011;7006;51.494;11.964;2023-08-12T09:17:31;9.87;;;8.97;;
13872;SDS011;7006;51.494;11.964;2023-08-12T09:19:59;9.80;;;8.93;;
13872;SDS011;7006;51.494;11.964;2023-08-12T09:22:29;9.27;;;8.37;;
13872;SDS011;7006;51.494;11.964;2023-08-12T09:24:57;10.13;;;8.73;;
13872;SDS011;7006;51.494;11.964;2023-08-12T09:27:26;9.93;;;9.10;;
13872;SDS011;7006;51.494;11.964;2023-08-12T09:29:57;8.87;;;8.07;;
13872;SDS011;7006;51.494;11.964;2023-08-12T09:32:26;8.77;;;7.97;;
13872;SDS011;7006;51.494;11.964;2023-08-12T09:34:54;9.53;;;8.53;;
13872;SDS011;7006;51.494;11.964;2023-08-12T09:37:23;10.43;;;9.53;;
13872;SDS011;7006;51.494;11.964;2023-08-12T09:39:52;9.47;;;8.03;;
13872;SDS011;7006;51.494;11.964;2023-08-12T09:42:20;10.43;;;8.27;;
13872;SDS011;7006;51.494;11.964;2023-08-12T09:44:48;11.63;;;9.70;;
13872;SDS011;7006;51.494;11.964;2023-08-12T09:47:19;9.03;;;8.07;;
13872;SDS011;7006;51.494;11.964;2023-08-12T09:49:48;8.97;;;8.00;;
13872;SDS011;7006;51.494;11.964;2023-08-12T09:52:16;9.03;;;8.23;;
13872;SDS011;7006;51.494;11.964;2023-08-12T09:54:44;9.30;;;8.40;;
13872;SDS011;7006;51.494;11.964;2023-08-12T09:57:13;9.90;;;9.00;;
13872;SDS011;7006;51.494;11.964;2023-08-12T09:59:42;8.93;;;8.13;;
13872;SDS011;7006;51.494;11.964;2023-08-12T10:02:11;9.10;;;8.20;;
13872;SDS011;7006;51.494;11.964;2023-08-12T10:04:46;9.90;;;9.00;;
13872;SDS011;7006;51.494;11.964;2023-08-12T10:07:16;8.70;;;8.00;;
13872;SDS011;7006;51.494;11.964;2023-08-12T10:09:45;9.43;;;8.47;;
13872;SDS011;7006;51.494;11.964;2023-08-12T10:12:13;11.27;;;8.40;;
13872;SDS011;7006;51.494;11.964;2023-08-12T10:14:41;9.20;;;8.37;;
13872;SDS011;7006;51.494;11.964;2023-08-12T10:17:10;9.07;;;8.20;;
13872;SDS011;7006;51.494;11.964;2023-08-12T10:19:38;9.33;;;8.33;;
13872;SDS011;7006;51.494;11.964;2023-08-12T10:22:14;8.33;;;7.53;;
13872;SDS011;7006;51.494;11.964;2023-08-12T10:24:42;7.90;;;7.20;;
13872;SDS011;7006;51.494;11.964;2023-08-12T10:27:11;7.87;;;7.13;;
13872;SDS011;7006;51.494;11.964;2023-08-12T10:29:41;8.30;;;7.40;;
13872;SDS011;7006;51.494;11.964;2023-08-12T10:32:10;7.43;;;6.70;;
13872;SDS011;7006;51.494;11.964;2023-08-12T10:34:38;8.93;;;6.67;;
13872;SDS011;7006;51.494;11.964;2023-08-12T10:37:06;7.10;;;6.50;;
13872;SDS011;7006;51.494;11.964;2023-08-12T10:39:40;6.67;;;6.07;;
13872;SDS011;7006;51.494;11.964;2023-08-12T10:42:08;6.57;;;5.83;;
13872;SDS011;7006;51.494;11.964;2023-08-12T10:44:39;8.07;;;6.00;;
13872;SDS011;7006;51.494;11.964;2023-08-12T10:47:08;7.10;;;6.40;;
13872;SDS011;7006;51.494;11.964;2023-08-12T10:49:38;6.40;;;5.60;;
13872;SDS011;7006;51.494;11.964;2023-08-12T10:52:06;7.77;;;5.70;;
13872;SDS011;7006;51.494;11.964;2023-08-12T10:54:49;5.53;;;5.00;;
13872;SDS011;7006;51.494;11.964;2023-08-12T10:57:17;9.50;;;5.10;;
13872;SDS011;7006;51.494;11.964;2023-08-12T10:59:49;5.57;;;5.07;;
13872;SDS011;7006;51.494;11.964;2023-08-12T11:02:20;6.33;;;4.90;;
13872;SDS011;7006;51.494;11.964;2023-08-12T11:04:49;6.20;;;5.43;;
13872;SDS011;7006;51.494;11.964;2023-08-12T11:07:17;5.83;;;5.20;;
13872;SDS011;7006;51.494;11.964;2023-08-12T11:09:52;6.40;;;5.20;;
13872;SDS011;7006;51.494;11.964;2023-08-12T11:12:29;5.80;;;4.90;;
13872;SDS011;7006;51.494;11.964;2023-08-12T11:14:58;7.47;;;5.80;;
13872;SDS011;7006;51.494;11.964;2023-08-12T11:17:29;6.30;;;5.70;;
13872;SDS011;7006;51.494;11.964;2023-08-12T11:19:57;5.83;;;5.33;;
13872;SDS011;7006;51.494;11.964;2023-08-12T11:22:25;8.03;;;5.53;;
13872;SDS011;7006;51.494;11.964;2023-08-12T11:24:56;5.77;;;5.07;;
13872;SDS011;7006;51.494;11.964;2023-08-12T11:27:24;6.00;;;5.50;;
13872;SDS011;7006;51.494;11.964;2023-08-12T11:29:53;5.80;;;5.30;;
13872;SDS011;7006;51.494;11.964;2023-08-12T11:32:21;7.07;;;5.77;;
13872;SDS011;7006;51.494;11.964;2023-08-12T11:34:49;6.17;;;5.57;;
13872;SDS011;7006;51.494;11.964;2023-08-12T11:37:17;5.00;;;4.60;;
13872;SDS011;7006;51.494;11.964;2023-08-12T11:39:45;5.50;;;5.00;;
13872;SDS011;7006;51.494;11.964;2023-08-12T11:42:15;5.60;;;5.03;;
13872;SDS011;7006;51.494;11.964;2023-08-12T11:44:43;6.27;;;5.37;;
13872;SDS011;7006;51.494;11.964;2023-08-12T11:47:11;5.63;;;5.13;;
13872;SDS011;7006;51.494;11.964;2023-08-12T11:49:40;7.37;;;5.43;;
13872;SDS011;7006;51.494;11.964;2023-08-12T11:52:08;5.50;;;4.60;;
13872;SDS011;7006;51.494;11.964;2023-08-12T11:54:36;5.53;;;4.90;;
13872;SDS011;7006;51.494;11.964;2023-08-12T11:57:05;7.80;;;5.47;;
13872;SDS011;7006;51.494;11.964;2023-08-12T11:59:35;4.90;;;4.40;;
13872;SDS011;7006;51.494;11.964;2023-08-12T12:02:04;4.93;;;4.53;;
13872;SDS011;7006;51.494;11.964;2023-08-12T12:04:32;5.07;;;4.67;;
13872;SDS011;7006;51.494;11.964;2023-08-12T12:07:00;5.40;;;4.30;;
13872;SDS011;7006;51.494;11.964;2023-08-12T12:09:31;5.27;;;4.77;;
13872;SDS011;7006;51.494;11.964;2023-08-12T12:11:59;5.43;;;4.70;;
13872;SDS011;7006;51.494;11.964;2023-08-12T12:14:28;9.03;;;5.27;;
13872;SDS011;7006;51.494;11.964;2023-08-12T12:16:58;5.53;;;4.47;;
13872;SDS011;7006;51.494;11.964;2023-08-12T12:19:27;5.10;;;4.37;;
13872;SDS011;7006;51.494;11.964;2023-08-12T12:21:55;4.63;;;4.23;;
13872;SDS011;7006;51.494;11.964;2023-08-12T12:24:23;5.23;;;4.73;;
13872;SDS011;7006;51.494;11.964;2023-08-12T12:26:56;5.30;;;4.60;;
13872;SDS011;7006;51.494;11.964;2023-08-12T12:29:24;4.90;;;4.10;;
13872;SDS011;7006;51.494;11.964;2023-08-12T12:31:52;5.70;;;4.30;;
13872;SDS011;7006;51.494;11.964;2023-08-12T12:34:23;5.20;;;4.70;;
13872;SDS011;7006;51.494;11.964;2023-08-12T12:36:51;5.00;;;4.60;;
13872;SDS011;7006;51.494;11.964;2023-08-12T12:39:19;5.53;;;5.00;;
13872;SDS011;7006;51.494;11.964;2023-08-12T12:41:48;5.47;;;4.53;;
13872;SDS011;7006;51.494;11.964;2023-08-12T12:44:16;7.97;;;4.50;;
13872;SDS011;7006;51.494;11.964;2023-08-12T12:46:44;6.43;;;5.03;;
13872;SDS011;7006;51.494;11.964;2023-08-12T12:49:12;5.10;;;4.70;;
13872;SDS011;7006;51.494;11.964;2023-08-12T12:51:43;5.87;;;5.13;;
13872;SDS011;7006;51.494;11.964;2023-08-12T12:54:11;5.20;;;4.80;;
13872;SDS011;7006;51.494;11.964;2023-08-12T12:56:39;5.20;;;4.80;;
13872;SDS011;7006;51.494;11.964;2023-08-12T12:59:07;5.50;;;5.00;;
13872;SDS011;7006;51.494;11.964;2023-08-12T13:01:35;9.10;;;5.07;;
13872;SDS011;7006;51.494;11.964;2023-08-12T13:04:04;7.07;;;5.23;;
13872;SDS011;7006;51.494;11.964;2023-08-12T13:06:33;5.00;;;4.50;;
13872;SDS011;7006;51.494;11.964;2023-08-12T13:09:04;5.20;;;4.70;;
13872;SDS011;7006;51.494;11.964;2023-08-12T13:11:32;5.07;;;4.57;;
13872;SDS011;7006;51.494;11.964;2023-08-12T13:14:01;6.77;;;4.87;;
13872;SDS011;7006;51.494;11.964;2023-08-12T13:16:29;5.30;;;4.80;;
13872;SDS011;7006;51.494;11.964;2023-08-12T13:18:58;5.47;;;5.00;;
13872;SDS011;7006;51.494;11.964;2023-08-12T13:21:26;7.47;;;5.10;;
13872;SDS011;7006;51.494;11.964;2023-08-12T13:23:54;4.90;;;4.50;;
13872;SDS011;7006;51.494;11.964;2023-08-12T13:26:25;7.83;;;5.03;;
13872;SDS011;7006;51.494;11.964;2023-08-12T13:28:53;6.23;;;4.83;;
13872;SDS011;7006;51.494;11.964;2023-08-12T13:31:21;5.20;;;4.70;;
13872;SDS011;7006;51.494;11.964;2023-08-12T13:33:50;5.90;;;4.77;;
13872;SDS011;7006;51.494;11.964;2023-08-12T13:36:18;6.13;;;5.23;;
13872;SDS011;7006;51.494;11.964;2023-08-12T13:38:46;5.70;;;5.20;;
13872;SDS011;7006;51.494;11.964;2023-08-12T13:41:14;5.20;;;4.33;;
13872;SDS011;7006;51.494;11.964;2023-08-12T13:43:45;5.10;;;4.70;;
13872;SDS011;7006;51.494;11.964;2023-08-12T13:46:13;6.13;;;4.60;;
13872;SDS011;7006;51.494;11.964;2023-08-12T13:48:41;5.13;;;4.70;;
13872;SDS011;7006;51.494;11.964;2023-08-12T13:51:09;6.37;;;5.33;;
13872;SDS011;7006;51.494;11.964;2023-08-12T13:53:37;6.87;;;5.10;;
13872;SDS011;7006;51.494;11.964;2023-08-12T13:56:05;5.73;;;5.00;;
13872;SDS011;7006;51.494;11.964;2023-08-12T13:58:34;7.53;;;5.30;;
13872;SDS011;7006;51.494;11.964;2023-08-12T14:01:04;5.90;;;5.10;;
13872;SDS011;7006;51.494;11.964;2023-08-12T14:03:33;5.80;;;5.30;;
13872;SDS011;7006;51.494;11.964;2023-08-12T14:06:02;7.87;;;5.80;;
13872;SDS011;7006;51.494;11.964;2023-08-12T14:08:30;5.30;;;4.80;;
13872;SDS011;7006;51.494;11.964;2023-08-12T14:10:59;5.53;;;5.03;;
13872;SDS011;7006;51.494;11.964;2023-08-12T14:13:28;7.40;;;5.33;;
13872;SDS011;7006;51.494;11.964;2023-08-12T14:15:56;6.30;;;5.20;;
13872;SDS011;7006;51.494;11.964;2023-08-12T14:18:26;4.80;;;4.30;;
13872;SDS011;7006;51.494;11.964;2023-08-12T14:20:54;5.60;;;5.10;;
13872;SDS011;7006;51.494;11.964;2023-08-12T14:23:22;5.03;;;4.50;;
13872;SDS011;7006;51.494;11.964;2023-08-12T14:25:50;6.07;;;5.57;;
13872;SDS011;7006;51.494;11.964;2023-08-12T14:28:18;6.20;;;5.13;;
13872;SDS011;7006;51.494;11.964;2023-08-12T14:30:47;5.53;;;5.03;;
13872;SDS011;7006;51.494;11.964;2023-08-12T14:33:15;6.60;;;5.03;;
13872;SDS011;7006;51.494;11.964;2023-08-12T14:35:45;5.63;;;5.13;;
13872;SDS011;7006;51.494;11.964;2023-08-12T14:38:13;5.70;;;5.10;;
13872;SDS011;7006;51.494;11.964;2023-08-12T14:40:41;6.30;;;5.63;;
13872;SDS011;7006;51.494;11.964;2023-08-12T14:43:09;6.07;;;4.97;;
13872;SDS011;7006;51.494;11.964;2023-08-12T14:45:37;6.17;;;5.57;;
13872;SDS011;7006;51.494;11.964;2023-08-12T14:48:06;5.63;;;5.13;;
13872;SDS011;7006;51.494;11.964;2023-08-12T14:50:34;5.53;;;4.90;;
13872;SDS011;7006;51.494;11.964;2023-08-12T14:53:07;8.13;;;5.50;;